sensor_id;sensor_type;location;lat;lon;timestamp;pressure;altitude;pressure_sealevel;temperature;humidity
51807;BME280;37865;51.304;9.536;2023-09-30T00:01:44;100763.06;;;13.53;96.70
51807;BME280;37865;51.304;9.536;2023-09-30T00:04:10;100760.47;;;13.46;97.32
51807;BME280;37865;51.304;9.536;2023-09-30T00:06:35;100781.50;;;13.41;97.04
51807;BME280;37865;51.304;9.536;2023-09-30T00:09:01;100776.75;;;13.36;97.67
51807;BME280;37865;51.304;9.536;2023-09-30T00:11:26;100777.50;;;13.32;97.91
51807;BME280;37865;51.304;9.536;2023-09-30T00:13:51;100775.16;;;13.24;97.80
51807;BME280;37865;51.304;9.536;2023-09-30T00:16:16;100768.31;;;13.21;98.32
51807;BME280;37865;51.304;9.536;2023-09-30T00:18:43;100767.09;;;13.17;98.19
51807;BME280;37865;51.304;9.536;2023-09-30T00:21:09;100770.63;;;13.13;98.26
51807;BME280;37865;51.304;9.536;2023-09-30T00:23:34;100765.28;;;13.06;98.56
51807;BME280;37865;51.304;9.536;2023-09-30T00:26:00;100776.69;;;13.03;99.26
51807;BME280;37865;51.304;9.536;2023-09-30T00:28:25;100786.81;;;13.03;99.71
51807;BME280;37865;51.304;9.536;2023-09-30T00:30:51;100786.72;;;12.98;98.99
51807;BME280;37865;51.304;9.536;2023-09-30T00:33:16;100788.19;;;12.88;99.05
51807;BME280;37865;51.304;9.536;2023-09-30T00:35:41;100788.25;;;12.77;99.24
51807;BME280;37865;51.304;9.536;2023-09-30T00:38:07;100793.53;;;12.67;99.16
51807;BME280;37865;51.304;9.536;2023-09-30T00:40:33;100787.88;;;12.57;99.57
51807;BME280;37865;51.304;9.536;2023-09-30T00:43:00;100787.03;;;12.45;98.99
51807;BME280;37865;51.304;9.536;2023-09-30T00:45:26;100793.63;;;12.32;99.33
51807;BME280;37865;51.304;9.536;2023-09-30T00:47:51;100797.44;;;12.20;99.55
51807;BME280;37865;51.304;9.536;2023-09-30T00:50:16;100805.44;;;12.09;99.79
51807;BME280;37865;51.304;9.536;2023-09-30T00:52:44;100799.97;;;11.98;100.00
51807;BME280;37865;51.304;9.536;2023-09-30T00:55:10;100800.56;;;11.88;100.00
51807;BME280;37865;51.304;9.536;2023-09-30T00:57:36;100798.78;;;11.82;100.00
51807;BME280;37865;51.304;9.536;2023-09-30T01:00:02;100803.56;;;11.75;100.00
51807;BME280;37865;51.304;9.536;2023-09-30T01:02:28;100803.66;;;11.69;100.00
51807;BME280;37865;51.304;9.536;2023-09-30T01:04:53;100811.69;;;11.64;100.00
51807;BME280;37865;51.304;9.536;2023-09-30T01:07:20;100818.69;;;11.60;100.00
51807;BME280;37865;51.304;9.536;2023-09-30T01:09:47;100819.41;;;11.55;100.00
51807;BME280;37865;51.304;9.536;2023-09-30T01:12:12;100824.06;;;11.55;100.00
51807;BME280;37865;51.304;9.536;2023-09-30T01:14:37;100820.94;;;11.51;100.00
51807;BME280;37865;51.304;9.536;2023-09-30T01:17:07;100829.63;;;11.48;100.00
51807;BME280;37865;51.304;9.536;2023-09-30T01:19:39;100825.44;;;11.46;100.00
51807;BME280;37865;51.304;9.536;2023-09-30T01:22:04;100829.63;;;11.48;100.00
51807;BME280;37865;51.304;9.536;2023-09-30T01:24:29;100830.69;;;11.47;100.00
51807;BME280;37865;51.304;9.536;2023-09-30T01:26:55;100832.59;;;11.47;100.00
51807;BME280;37865;51.304;9.536;2023-09-30T01:29:21;100832.81;;;11.45;100.00
51807;BME280;37865;51.304;9.536;2023-09-30T01:31:47;100839.13;;;11.57;100.00
51807;BME280;37865;51.304;9.536;2023-09-30T01:34:13;100838.66;;;11.60;100.00
51807;BME280;37865;51.304;9.536;2023-09-30T01:36:38;100848.75;;;11.60;100.00
51807;BME280;37865;51.304;9.536;2023-09-30T01:39:03;100845.41;;;11.58;100.00
51807;BME280;37865;51.304;9.536;2023-09-30T01:41:29;100852.66;;;11.52;100.00
51807;BME280;37865;51.304;9.536;2023-09-30T01:43:54;100857.19;;;11.47;100.00
51807;BME280;37865;51.304;9.536;2023-09-30T01:46:19;100859.16;;;11.40;100.00
51807;BME280;37865;51.304;9.536;2023-09-30T01:48:44;100860.09;;;11.33;100.00
51807;BME280;37865;51.304;9.536;2023-09-30T01:51:09;100848.09;;;11.34;100.00
51807;BME280;37865;51.304;9.536;2023-09-30T01:53:35;100847.50;;;11.32;100.00
51807;BME280;37865;51.304;9.536;2023-09-30T01:56:00;100837.66;;;11.31;100.00
51807;BME280;37865;51.304;9.536;2023-09-30T01:58:25;100846.91;;;11.30;100.00
51807;BME280;37865;51.304;9.536;2023-09-30T02:00:51;100855.94;;;11.31;100.00
51807;BME280;37865;51.304;9.536;2023-09-30T02:03:16;100850.97;;;11.28;100.00
51807;BME280;37865;51.304;9.536;2023-09-30T02:05:42;100857.72;;;11.25;100.00
51807;BME280;37865;51.304;9.536;2023-09-30T02:08:08;100867.63;;;11.20;100.00
51807;BME280;37865;51.304;9.536;2023-09-30T02:10:33;100858.03;;;11.17;100.00
51807;BME280;37865;51.304;9.536;2023-09-30T02:12:58;100845.19;;;11.18;100.00
51807;BME280;37865;51.304;9.536;2023-09-30T02:15:24;100840.81;;;11.17;100.00
51807;BME280;37865;51.304;9.536;2023-09-30T02:17:50;100852.78;;;11.16;100.00
51807;BME280;37865;51.304;9.536;2023-09-30T02:20:15;100865.84;;;11.14;100.00
51807;BME280;37865;51.304;9.536;2023-09-30T02:22:44;100870.25;;;11.15;100.00
51807;BME280;37865;51.304;9.536;2023-09-30T02:25:09;100870.84;;;11.17;100.00
51807;BME280;37865;51.304;9.536;2023-09-30T02:27:35;100875.22;;;11.18;100.00
51807;BME280;37865;51.304;9.536;2023-09-30T02:30:00;100856.38;;;11.16;100.00
51807;BME280;37865;51.304;9.536;2023-09-30T02:32:25;100863.50;;;11.17;100.00
51807;BME280;37865;51.304;9.536;2023-09-30T02:34:51;100854.47;;;11.17;100.00
51807;BME280;37865;51.304;9.536;2023-09-30T02:37:16;100844.00;;;11.14;100.00
51807;BME280;37865;51.304;9.536;2023-09-30T02:39:43;100851.59;;;11.12;100.00
51807;BME280;37865;51.304;9.536;2023-09-30T02:42:09;100862.50;;;11.12;100.00
51807;BME280;37865;51.304;9.536;2023-09-30T02:44:35;100860.25;;;11.09;100.00
51807;BME280;37865;51.304;9.536;2023-09-30T02:47:00;100864.28;;;11.06;100.00
51807;BME280;37865;51.304;9.536;2023-09-30T02:49:25;100846.47;;;11.04;100.00
51807;BME280;37865;51.304;9.536;2023-09-30T02:51:50;100851.47;;;11.07;100.00
51807;BME280;37865;51.304;9.536;2023-09-30T02:54:16;100845.19;;;11.06;100.00
51807;BME280;37865;51.304;9.536;2023-09-30T02:56:41;100846.22;;;11.05;100.00
51807;BME280;37865;51.304;9.536;2023-09-30T02:59:06;100850.03;;;11.04;100.00
51807;BME280;37865;51.304;9.536;2023-09-30T03:01:32;100860.09;;;11.04;100.00
51807;BME280;37865;51.304;9.536;2023-09-30T03:03:57;100863.69;;;11.04;100.00
51807;BME280;37865;51.304;9.536;2023-09-30T03:06:22;100857.03;;;11.00;100.00
51807;BME280;37865;51.304;9.536;2023-09-30T03:08:48;100849.88;;;10.99;100.00
51807;BME280;37865;51.304;9.536;2023-09-30T03:11:13;100854.28;;;11.00;100.00
51807;BME280;37865;51.304;9.536;2023-09-30T03:13:38;100855.34;;;10.99;100.00
51807;BME280;37865;51.304;9.536;2023-09-30T03:16:05;100859.16;;;10.98;100.00
51807;BME280;37865;51.304;9.536;2023-09-30T03:18:30;100871.94;;;10.98;100.00
51807;BME280;37865;51.304;9.536;2023-09-30T03:20:59;100878.50;;;10.97;100.00
51807;BME280;37865;51.304;9.536;2023-09-30T03:23:25;100870.31;;;10.97;100.00
51807;BME280;37865;51.304;9.536;2023-09-30T03:25:56;100879.69;;;11.01;100.00
51807;BME280;37865;51.304;9.536;2023-09-30T03:28:21;100888.69;;;11.01;100.00
51807;BME280;37865;51.304;9.536;2023-09-30T03:30:47;100889.28;;;11.03;100.00
51807;BME280;37865;51.304;9.536;2023-09-30T03:33:12;100898.31;;;11.04;100.00
51807;BME280;37865;51.304;9.536;2023-09-30T03:35:38;100900.22;;;11.03;100.00
51807;BME280;37865;51.304;9.536;2023-09-30T03:38:03;100901.88;;;11.04;100.00
51807;BME280;37865;51.304;9.536;2023-09-30T03:40:29;100910.06;;;11.04;100.00
51807;BME280;37865;51.304;9.536;2023-09-30T03:42:58;100900.81;;;11.05;100.00
51807;BME280;37865;51.304;9.536;2023-09-30T03:45:24;100876.84;;;11.07;100.00
51807;BME280;37865;51.304;9.536;2023-09-30T03:47:49;100873.91;;;11.09;100.00
51807;BME280;37865;51.304;9.536;2023-09-30T03:50:15;100878.53;;;11.08;100.00
51807;BME280;37865;51.304;9.536;2023-09-30T03:52:41;100869.25;;;11.09;100.00
51807;BME280;37865;51.304;9.536;2023-09-30T03:55:10;100864.03;;;11.08;100.00
51807;BME280;37865;51.304;9.536;2023-09-30T03:57:37;100862.38;;;11.07;100.00
51807;BME280;37865;51.304;9.536;2023-09-30T04:00:02;100871.03;;;11.04;100.00
51807;BME280;37865;51.304;9.536;2023-09-30T04:02:31;100868.53;;;11.02;100.00
51807;BME280;37865;51.304;9.536;2023-09-30T04:04:56;100876.81;;;10.96;100.00
51807;BME280;37865;51.304;9.536;2023-09-30T04:07:22;100893.03;;;10.91;100.00
51807;BME280;37865;51.304;9.536;2023-09-30T04:09:52;100898.63;;;10.96;100.00
51807;BME280;37865;51.304;9.536;2023-09-30T04:12:17;100894.88;;;10.97;100.00
51807;BME280;37865;51.304;9.536;2023-09-30T04:14:42;100890.22;;;10.97;100.00
51807;BME280;37865;51.304;9.536;2023-09-30T04:17:07;100889.00;;;10.93;100.00
51807;BME280;37865;51.304;9.536;2023-09-30T04:19:34;100884.72;;;10.86;100.00
51807;BME280;37865;51.304;9.536;2023-09-30T04:21:59;100885.41;;;10.81;100.00
51807;BME280;37865;51.304;9.536;2023-09-30T04:24:25;100882.75;;;10.75;100.00
51807;BME280;37865;51.304;9.536;2023-09-30T04:26:50;100887.84;;;10.71;100.00
51807;BME280;37865;51.304;9.536;2023-09-30T04:29:17;100882.22;;;10.66;100.00
51807;BME280;37865;51.304;9.536;2023-09-30T04:31:43;100876.63;;;10.61;100.00
51807;BME280;37865;51.304;9.536;2023-09-30T04:34:08;100880.03;;;10.57;100.00
51807;BME280;37865;51.304;9.536;2023-09-30T04:36:34;100888.91;;;10.52;100.00
51807;BME280;37865;51.304;9.536;2023-09-30T04:39:02;100892.53;;;10.46;100.00
51807;BME280;37865;51.304;9.536;2023-09-30T04:41:28;100888.59;;;10.42;100.00
51807;BME280;37865;51.304;9.536;2023-09-30T04:43:53;100901.00;;;10.38;100.00
51807;BME280;37865;51.304;9.536;2023-09-30T04:46:18;100908.41;;;10.31;100.00
51807;BME280;37865;51.304;9.536;2023-09-30T04:48:48;100908.28;;;10.26;100.00
51807;BME280;37865;51.304;9.536;2023-09-30T04:51:13;100918.56;;;10.24;100.00
51807;BME280;37865;51.304;9.536;2023-09-30T04:53:41;100923.19;;;10.23;100.00
51807;BME280;37865;51.304;9.536;2023-09-30T04:56:06;100923.41;;;10.22;100.00
51807;BME280;37865;51.304;9.536;2023-09-30T04:58:32;100925.72;;;10.18;100.00
51807;BME280;37865;51.304;9.536;2023-09-30T05:00:57;100921.34;;;10.17;100.00
51807;BME280;37865;51.304;9.536;2023-09-30T05:03:22;100924.50;;;10.14;100.00
51807;BME280;37865;51.304;9.536;2023-09-30T05:05:49;100915.97;;;10.11;100.00
51807;BME280;37865;51.304;9.536;2023-09-30T05:08:14;100916.16;;;10.09;100.00
51807;BME280;37865;51.304;9.536;2023-09-30T05:10:40;100905.94;;;10.05;100.00
51807;BME280;37865;51.304;9.536;2023-09-30T05:13:06;100923.13;;;10.05;100.00
51807;BME280;37865;51.304;9.536;2023-09-30T05:15:31;100920.59;;;10.04;100.00
51807;BME280;37865;51.304;9.536;2023-09-30T05:17:57;100927.53;;;10.00;100.00
51807;BME280;37865;51.304;9.536;2023-09-30T05:20:22;100919.84;;;9.97;100.00
51807;BME280;37865;51.304;9.536;2023-09-30T05:22:49;100924.22;;;9.98;100.00
51807;BME280;37865;51.304;9.536;2023-09-30T05:25:15;100928.00;;;9.97;100.00
51807;BME280;37865;51.304;9.536;2023-09-30T05:27:44;100937.84;;;9.98;100.00
51807;BME280;37865;51.304;9.536;2023-09-30T05:30:09;100930.94;;;9.95;100.00
51807;BME280;37865;51.304;9.536;2023-09-30T05:32:36;100934.97;;;9.93;100.00
51807;BME280;37865;51.304;9.536;2023-09-30T05:35:04;100929.09;;;9.89;100.00
51807;BME280;37865;51.304;9.536;2023-09-30T05:37:30;100935.41;;;9.90;100.00
51807;BME280;37865;51.304;9.536;2023-09-30T05:39:55;100952.69;;;10.02;100.00
51807;BME280;37865;51.304;9.536;2023-09-30T05:42:21;100951.38;;;10.11;100.00
51807;BME280;37865;51.304;9.536;2023-09-30T05:44:47;100955.09;;;10.16;100.00
51807;BME280;37865;51.304;9.536;2023-09-30T05:47:13;100965.09;;;10.22;100.00
51807;BME280;37865;51.304;9.536;2023-09-30T05:49:38;100964.84;;;10.30;100.00
51807;BME280;37865;51.304;9.536;2023-09-30T05:52:03;100964.56;;;10.38;100.00
51807;BME280;37865;51.304;9.536;2023-09-30T05:54:30;100964.47;;;10.45;100.00
51807;BME280;37865;51.304;9.536;2023-09-30T05:56:55;100966.09;;;10.52;100.00
51807;BME280;37865;51.304;9.536;2023-09-30T05:59:21;100971.69;;;10.58;100.00
51807;BME280;37865;51.304;9.536;2023-09-30T06:01:46;100976.09;;;10.59;100.00
51807;BME280;37865;51.304;9.536;2023-09-30T06:04:12;100966.84;;;10.60;100.00
51807;BME280;37865;51.304;9.536;2023-09-30T06:06:37;100973.53;;;10.64;100.00
51807;BME280;37865;51.304;9.536;2023-09-30T06:09:03;100975.19;;;10.65;100.00
51807;BME280;37865;51.304;9.536;2023-09-30T06:11:28;100968.91;;;10.64;100.00
51807;BME280;37865;51.304;9.536;2023-09-30T06:13:54;100972.03;;;10.68;100.00
51807;BME280;37865;51.304;9.536;2023-09-30T06:16:19;100976.78;;;10.72;100.00
51807;BME280;37865;51.304;9.536;2023-09-30T06:18:45;100973.13;;;10.78;100.00
51807;BME280;37865;51.304;9.536;2023-09-30T06:21:10;100955.28;;;10.82;100.00
51807;BME280;37865;51.304;9.536;2023-09-30T06:23:36;100953.78;;;10.86;100.00
51807;BME280;37865;51.304;9.536;2023-09-30T06:26:01;100949.72;;;10.89;100.00
51807;BME280;37865;51.304;9.536;2023-09-30T06:28:29;100953.06;;;10.91;100.00
51807;BME280;37865;51.304;9.536;2023-09-30T06:30:56;100954.75;;;10.92;100.00
51807;BME280;37865;51.304;9.536;2023-09-30T06:33:21;100968.75;;;10.95;100.00
51807;BME280;37865;51.304;9.536;2023-09-30T06:35:47;100967.22;;;10.99;100.00
51807;BME280;37865;51.304;9.536;2023-09-30T06:38:21;100973.44;;;11.06;100.00
51807;BME280;37865;51.304;9.536;2023-09-30T06:40:47;100979.69;;;11.13;100.00
51807;BME280;37865;51.304;9.536;2023-09-30T06:43:15;100982.78;;;11.17;100.00
51807;BME280;37865;51.304;9.536;2023-09-30T06:45:44;100994.06;;;11.20;100.00
51807;BME280;37865;51.304;9.536;2023-09-30T06:48:10;100997.03;;;11.19;100.00
51807;BME280;37865;51.304;9.536;2023-09-30T06:50:45;101002.72;;;11.17;100.00
51807;BME280;37865;51.304;9.536;2023-09-30T06:53:16;100997.25;;;11.17;100.00
51807;BME280;37865;51.304;9.536;2023-09-30T06:55:42;100999.53;;;11.20;100.00
51807;BME280;37865;51.304;9.536;2023-09-30T06:58:11;101003.09;;;11.21;100.00
51807;BME280;37865;51.304;9.536;2023-09-30T07:00:37;101010.44;;;11.20;100.00
51807;BME280;37865;51.304;9.536;2023-09-30T07:03:02;101019.25;;;11.22;100.00
51807;BME280;37865;51.304;9.536;2023-09-30T07:05:27;101010.88;;;11.36;100.00
51807;BME280;37865;51.304;9.536;2023-09-30T07:07:56;101020.94;;;11.53;100.00
51807;BME280;37865;51.304;9.536;2023-09-30T07:10:21;101020.09;;;11.71;100.00
51807;BME280;37865;51.304;9.536;2023-09-30T07:12:46;101020.53;;;11.86;100.00
51807;BME280;37865;51.304;9.536;2023-09-30T07:15:11;101029.50;;;12.04;100.00
51807;BME280;37865;51.304;9.536;2023-09-30T07:17:39;101018.91;;;12.20;100.00
51807;BME280;37865;51.304;9.536;2023-09-30T07:20:04;101029.56;;;12.39;100.00
51807;BME280;37865;51.304;9.536;2023-09-30T07:22:30;101031.22;;;12.63;100.00
51807;BME280;37865;51.304;9.536;2023-09-30T07:24:56;101036.81;;;12.91;100.00
51807;BME280;37865;51.304;9.536;2023-09-30T07:27:21;101029.94;;;13.12;100.00
51807;BME280;37865;51.304;9.536;2023-09-30T07:29:46;101034.78;;;13.33;100.00
51807;BME280;37865;51.304;9.536;2023-09-30T07:32:13;101034.34;;;13.53;100.00
51807;BME280;37865;51.304;9.536;2023-09-30T07:34:38;101044.28;;;13.70;100.00
51807;BME280;37865;51.304;9.536;2023-09-30T07:37:03;101033.28;;;13.82;100.00
51807;BME280;37865;51.304;9.536;2023-09-30T07:39:29;101034.88;;;13.95;100.00
51807;BME280;37865;51.304;9.536;2023-09-30T07:41:54;101031.00;;;14.07;100.00
51807;BME280;37865;51.304;9.536;2023-09-30T07:44:19;101037.91;;;14.10;100.00
51807;BME280;37865;51.304;9.536;2023-09-30T07:46:44;101035.50;;;14.13;100.00
51807;BME280;37865;51.304;9.536;2023-09-30T07:49:10;101039.00;;;14.25;100.00
51807;BME280;37865;51.304;9.536;2023-09-30T07:51:35;101042.78;;;14.36;100.00
51807;BME280;37865;51.304;9.536;2023-09-30T07:54:00;101038.56;;;14.45;100.00
51807;BME280;37865;51.304;9.536;2023-09-30T07:56:26;101042.13;;;14.45;100.00
51807;BME280;37865;51.304;9.536;2023-09-30T07:58:51;101044.13;;;14.50;100.00
51807;BME280;37865;51.304;9.536;2023-09-30T08:01:16;101048.19;;;14.64;100.00
51807;BME280;37865;51.304;9.536;2023-09-30T08:03:43;101036.09;;;14.82;100.00
51807;BME280;37865;51.304;9.536;2023-09-30T08:06:08;101040.25;;;15.01;100.00
51807;BME280;37865;51.304;9.536;2023-09-30T08:08:36;101031.97;;;15.17;100.00
51807;BME280;37865;51.304;9.536;2023-09-30T08:11:01;101022.50;;;15.30;98.50
51807;BME280;37865;51.304;9.536;2023-09-30T08:13:26;101028.13;;;15.40;98.04
51807;BME280;37865;51.304;9.536;2023-09-30T08:15:52;101034.56;;;15.46;97.02
51807;BME280;37865;51.304;9.536;2023-09-30T08:18:18;101033.19;;;15.48;95.21
51807;BME280;37865;51.304;9.536;2023-09-30T08:20:43;101030.78;;;15.52;93.46
51807;BME280;37865;51.304;9.536;2023-09-30T08:23:09;101046.19;;;15.53;91.56
51807;BME280;37865;51.304;9.536;2023-09-30T08:25:34;101045.41;;;15.57;91.36
51807;BME280;37865;51.304;9.536;2023-09-30T08:27:59;101038.06;;;15.63;90.06
51807;BME280;37865;51.304;9.536;2023-09-30T08:30:25;101039.72;;;15.64;88.86
51807;BME280;37865;51.304;9.536;2023-09-30T08:32:51;101046.47;;;15.78;89.06
51807;BME280;37865;51.304;9.536;2023-09-30T08:35:16;101048.88;;;15.96;88.60
51807;BME280;37865;51.304;9.536;2023-09-30T08:37:41;101048.69;;;16.02;87.65
51807;BME280;37865;51.304;9.536;2023-09-30T08:40:06;101059.22;;;16.10;86.42
51807;BME280;37865;51.304;9.536;2023-09-30T08:42:34;101059.00;;;16.17;85.61
51807;BME280;37865;51.304;9.536;2023-09-30T08:45:00;101059.06;;;16.22;84.38
51807;BME280;37865;51.304;9.536;2023-09-30T08:47:28;101065.63;;;16.48;83.73
51807;BME280;37865;51.304;9.536;2023-09-30T08:49:54;101056.16;;;16.65;82.17
51807;BME280;37865;51.304;9.536;2023-09-30T08:52:22;101058.38;;;16.68;79.93
51807;BME280;37865;51.304;9.536;2023-09-30T08:54:48;101050.94;;;16.64;79.77
51807;BME280;37865;51.304;9.536;2023-09-30T08:57:13;101053.69;;;16.64;79.16
51807;BME280;37865;51.304;9.536;2023-09-30T08:59:40;101058.94;;;16.70;79.01
51807;BME280;37865;51.304;9.536;2023-09-30T09:02:09;101062.94;;;16.84;77.92
51807;BME280;37865;51.304;9.536;2023-09-30T09:04:35;101054.16;;;16.93;77.15
51807;BME280;37865;51.304;9.536;2023-09-30T09:07:01;101050.06;;;16.95;76.41
51807;BME280;37865;51.304;9.536;2023-09-30T09:09:26;101043.47;;;17.01;75.95
51807;BME280;37865;51.304;9.536;2023-09-30T09:11:51;101040.78;;;17.11;75.69
51807;BME280;37865;51.304;9.536;2023-09-30T09:14:17;101037.06;;;17.37;75.63
51807;BME280;37865;51.304;9.536;2023-09-30T09:16:52;101043.25;;;17.59;74.40
51807;BME280;37865;51.304;9.536;2023-09-30T09:19:20;101046.34;;;17.73;73.55
51807;BME280;37865;51.304;9.536;2023-09-30T09:22:07;101044.75;;;17.92;72.89
51807;BME280;37865;51.304;9.536;2023-09-30T09:24:40;101051.41;;;18.11;71.97
51807;BME280;37865;51.304;9.536;2023-09-30T09:27:12;101049.22;;;18.33;70.73
51807;BME280;37865;51.304;9.536;2023-09-30T09:29:38;101070.75;;;18.26;70.37
51807;BME280;37865;51.304;9.536;2023-09-30T09:32:10;101066.88;;;18.22;70.29
51807;BME280;37865;51.304;9.536;2023-09-30T09:34:36;101069.41;;;18.49;70.19
51807;BME280;37865;51.304;9.536;2023-09-30T09:37:12;101063.06;;;18.84;69.40
51807;BME280;37865;51.304;9.536;2023-09-30T09:39:37;101071.28;;;19.24;66.56
51807;BME280;37865;51.304;9.536;2023-09-30T09:42:02;101062.72;;;19.36;66.65
51807;BME280;37865;51.304;9.536;2023-09-30T09:44:28;101071.47;;;19.63;66.00
51807;BME280;37865;51.304;9.536;2023-09-30T09:46:54;101069.06;;;20.00;64.25
51807;BME280;37865;51.304;9.536;2023-09-30T09:49:22;101073.00;;;19.94;63.04
51807;BME280;37865;51.304;9.536;2023-09-30T09:51:49;101065.31;;;19.76;63.53
51807;BME280;37865;51.304;9.536;2023-09-30T09:54:15;101061.53;;;19.52;63.46
51807;BME280;37865;51.304;9.536;2023-09-30T09:56:42;101050.25;;;19.33;62.88
51807;BME280;37865;51.304;9.536;2023-09-30T09:59:08;101051.81;;;19.59;62.66
51807;BME280;37865;51.304;9.536;2023-09-30T10:01:34;101045.00;;;19.95;60.89
51807;BME280;37865;51.304;9.536;2023-09-30T10:04:00;101046.50;;;20.27;59.47
51807;BME280;37865;51.304;9.536;2023-09-30T10:06:26;101043.03;;;20.45;59.33
51807;BME280;37865;51.304;9.536;2023-09-30T10:08:51;101046.50;;;20.27;59.36
51807;BME280;37865;51.304;9.536;2023-09-30T10:11:17;101039.59;;;20.19;60.14
51807;BME280;37865;51.304;9.536;2023-09-30T10:13:49;101042.34;;;20.24;60.65
51807;BME280;37865;51.304;9.536;2023-09-30T10:21:33;101045.59;;;20.99;58.43
51807;BME280;37865;51.304;9.536;2023-09-30T10:26:42;101035.81;;;21.35;57.54
51807;BME280;37865;51.304;9.536;2023-09-30T10:29:11;101021.66;;;21.55;56.70
51807;BME280;37865;51.304;9.536;2023-09-30T10:31:48;101020.81;;;21.78;56.17
51807;BME280;37865;51.304;9.536;2023-09-30T10:34:17;101016.59;;;22.23;54.92
51807;BME280;37865;51.304;9.536;2023-09-30T10:36:43;101010.06;;;22.46;53.51
51807;BME280;37865;51.304;9.536;2023-09-30T10:39:11;101024.38;;;22.21;52.02
51807;BME280;37865;51.304;9.536;2023-09-30T10:46:46;101015.38;;;21.26;53.97
51807;BME280;37865;51.304;9.536;2023-09-30T10:49:15;101021.16;;;21.06;54.31
51807;BME280;37865;51.304;9.536;2023-09-30T10:51:42;101016.19;;;21.50;52.88
51807;BME280;37865;51.304;9.536;2023-09-30T10:54:07;101016.03;;;22.21;50.14
51807;BME280;37865;51.304;9.536;2023-09-30T10:56:33;101017.41;;;22.74;50.30
51807;BME280;37865;51.304;9.536;2023-09-30T10:58:58;101016.13;;;23.26;48.83
51807;BME280;37865;51.304;9.536;2023-09-30T11:01:25;101011.81;;;23.61;47.70
51807;BME280;37865;51.304;9.536;2023-09-30T11:04:00;101007.28;;;23.65;47.26
51807;BME280;37865;51.304;9.536;2023-09-30T11:06:30;101011.81;;;23.61;46.81
51807;BME280;37865;51.304;9.536;2023-09-30T11:08:56;101018.53;;;23.60;46.51
51807;BME280;37865;51.304;9.536;2023-09-30T11:13:57;101018.66;;;24.04;44.23
51807;BME280;37865;51.304;9.536;2023-09-30T11:16:22;100988.22;;;24.52;43.42
51807;BME280;37865;51.304;9.536;2023-09-30T11:18:52;100990.59;;;24.89;42.87
51807;BME280;37865;51.304;9.536;2023-09-30T11:21:18;101000.28;;;25.14;43.49
51807;BME280;37865;51.304;9.536;2023-09-30T11:23:43;100991.91;;;25.22;43.05
51807;BME280;37865;51.304;9.536;2023-09-30T11:26:08;100986.66;;;25.21;43.39
51807;BME280;37865;51.304;9.536;2023-09-30T11:28:41;100975.59;;;25.07;43.66
51807;BME280;37865;51.304;9.536;2023-09-30T11:31:10;100980.72;;;25.22;42.86
51807;BME280;37865;51.304;9.536;2023-09-30T11:33:49;100989.41;;;25.51;42.75
51807;BME280;37865;51.304;9.536;2023-09-30T11:36:17;100986.00;;;25.72;42.98
51807;BME280;37865;51.304;9.536;2023-09-30T11:38:46;100987.38;;;26.34;40.82
51807;BME280;37865;51.304;9.536;2023-09-30T11:41:12;100986.13;;;26.86;40.12
51807;BME280;37865;51.304;9.536;2023-09-30T11:43:38;100983.88;;;27.18;39.58
51807;BME280;37865;51.304;9.536;2023-09-30T11:46:07;100981.47;;;26.99;39.17
51807;BME280;37865;51.304;9.536;2023-09-30T11:48:34;100981.31;;;26.32;39.77
51807;BME280;37865;51.304;9.536;2023-09-30T11:51:00;100986.50;;;25.91;40.29
51807;BME280;37865;51.304;9.536;2023-09-30T11:53:28;100986.50;;;25.74;40.19
51807;BME280;37865;51.304;9.536;2023-09-30T11:55:54;100987.97;;;25.63;40.56
51807;BME280;37865;51.304;9.536;2023-09-30T11:58:21;100988.44;;;25.17;41.49
51807;BME280;37865;51.304;9.536;2023-09-30T12:00:47;100998.41;;;25.01;41.89
51807;BME280;37865;51.304;9.536;2023-09-30T12:03:15;100997.47;;;25.14;41.22
51807;BME280;37865;51.304;9.536;2023-09-30T12:05:41;100999.78;;;25.51;40.75
51807;BME280;37865;51.304;9.536;2023-09-30T12:08:06;100997.16;;;25.63;40.46
51807;BME280;37865;51.304;9.536;2023-09-30T12:10:31;100985.91;;;26.11;39.91
51807;BME280;37865;51.304;9.536;2023-09-30T12:12:57;100981.59;;;26.05;39.75
51807;BME280;37865;51.304;9.536;2023-09-30T12:15:22;100983.91;;;26.46;39.09
51807;BME280;37865;51.304;9.536;2023-09-30T12:17:47;100985.25;;;27.03;37.37
51807;BME280;37865;51.304;9.536;2023-09-30T12:20:12;100981.22;;;27.30;37.14
51807;BME280;37865;51.304;9.536;2023-09-30T12:22:40;100984.31;;;27.66;36.44
51807;BME280;37865;51.304;9.536;2023-09-30T12:25:06;100975.88;;;28.16;35.56
51807;BME280;37865;51.304;9.536;2023-09-30T12:27:33;100965.81;;;28.56;34.25
51807;BME280;37865;51.304;9.536;2023-09-30T12:29:58;100964.69;;;28.69;34.00
51807;BME280;37865;51.304;9.536;2023-09-30T12:32:24;100962.56;;;28.13;33.73
51807;BME280;37865;51.304;9.536;2023-09-30T12:34:50;100966.75;;;26.81;35.85
51807;BME280;37865;51.304;9.536;2023-09-30T12:37:16;100956.06;;;25.55;37.43
51807;BME280;37865;51.304;9.536;2023-09-30T12:39:41;100962.34;;;24.82;38.70
51807;BME280;37865;51.304;9.536;2023-09-30T12:42:07;100960.81;;;25.07;38.05
51807;BME280;37865;51.304;9.536;2023-09-30T12:44:34;100950.13;;;25.00;38.07
51807;BME280;37865;51.304;9.536;2023-09-30T12:47:00;100954.13;;;25.90;36.75
51807;BME280;37865;51.304;9.536;2023-09-30T12:49:26;100941.31;;;26.49;35.20
51807;BME280;37865;51.304;9.536;2023-09-30T12:51:51;100936.03;;;27.02;33.87
51807;BME280;37865;51.304;9.536;2023-09-30T12:54:16;100942.69;;;27.18;33.44
51807;BME280;37865;51.304;9.536;2023-09-30T12:56:43;100947.25;;;27.40;32.66